sensor_id;sensor_type;location;lat;lon;timestamp;P1;durP1;ratioP1;P2;durP2;ratioP2
17171;SDS011;8701;50.150;8.756;2023-02-12T00:01:21;26.13;;;15.07;;
17171;SDS011;8701;50.150;8.756;2023-02-12T00:05:25;24.17;;;14.30;;
17171;SDS011;8701;50.150;8.756;2023-02-12T00:09:27;28.43;;;15.57;;
17171;SDS011;8701;50.150;8.756;2023-02-12T00:13:29;28.93;;;16.13;;
17171;SDS011;8701;50.150;8.756;2023-02-12T00:17:33;29.13;;;16.40;;
17171;SDS011;8701;50.150;8.756;2023-02-12T00:21:36;25.87;;;15.43;;
17171;SDS011;8701;50.150;8.756;2023-02-12T00:25:39;25.87;;;14.80;;
17171;SDS011;8701;50.150;8.756;2023-02-12T00:29:42;30.80;;;16.10;;
17171;SDS011;8701;50.150;8.756;2023-02-12T00:33:46;27.00;;;16.47;;
17171;SDS011;8701;50.150;8.756;2023-02-12T00:37:48;26.30;;;15.00;;
17171;SDS011;8701;50.150;8.756;2023-02-12T00:41:53;30.37;;;16.90;;
17171;SDS011;8701;50.150;8.756;2023-02-12T00:45:56;27.83;;;16.47;;
17171;SDS011;8701;50.150;8.756;2023-02-12T00:49:59;33.10;;;17.17;;
17171;SDS011;8701;50.150;8.756;2023-02-12T00:54:02;23.90;;;14.47;;
17171;SDS011;8701;50.150;8.756;2023-02-12T00:58:04;26.13;;;15.47;;
17171;SDS011;8701;50.150;8.756;2023-02-12T01:02:07;27.63;;;15.63;;
17171;SDS011;8701;50.150;8.756;2023-02-12T01:06:11;30.93;;;17.10;;
17171;SDS011;8701;50.150;8.756;2023-02-12T01:10:13;29.97;;;16.97;;
17171;SDS011;8701;50.150;8.756;2023-02-12T01:14:16;26.10;;;16.23;;
17171;SDS011;8701;50.150;8.756;2023-02-12T01:18:18;29.53;;;17.70;;
17171;SDS011;8701;50.150;8.756;2023-02-12T01:22:22;33.60;;;17.50;;
17171;SDS011;8701;50.150;8.756;2023-02-12T01:26:25;26.00;;;16.73;;
17171;SDS011;8701;50.150;8.756;2023-02-12T01:30:28;28.60;;;16.37;;
17171;SDS011;8701;50.150;8.756;2023-02-12T01:34:31;27.73;;;16.07;;
17171;SDS011;8701;50.150;8.756;2023-02-12T01:38:35;34.43;;;17.53;;
17171;SDS011;8701;50.150;8.756;2023-02-12T01:42:40;29.10;;;17.20;;
17171;SDS011;8701;50.150;8.756;2023-02-12T01:46:43;31.17;;;17.20;;
17171;SDS011;8701;50.150;8.756;2023-02-12T01:50:48;32.87;;;18.10;;
17171;SDS011;8701;50.150;8.756;2023-02-12T01:54:54;28.83;;;18.40;;
17171;SDS011;8701;50.150;8.756;2023-02-12T01:59:00;33.07;;;19.00;;
17171;SDS011;8701;50.150;8.756;2023-02-12T02:03:05;29.30;;;17.87;;
17171;SDS011;8701;50.150;8.756;2023-02-12T02:07:08;31.47;;;18.10;;
17171;SDS011;8701;50.150;8.756;2023-02-12T02:11:13;35.80;;;18.50;;
17171;SDS011;8701;50.150;8.756;2023-02-12T02:15:34;37.07;;;20.00;;
17171;SDS011;8701;50.150;8.756;2023-02-12T02:19:49;28.20;;;17.83;;
17171;SDS011;8701;50.150;8.756;2023-02-12T02:24:22;30.37;;;17.37;;
17171;SDS011;8701;50.150;8.756;2023-02-12T02:28:53;31.87;;;17.37;;
17171;SDS011;8701;50.150;8.756;2023-02-12T02:33:18;28.73;;;16.87;;
17171;SDS011;8701;50.150;8.756;2023-02-12T02:37:32;35.80;;;19.13;;
17171;SDS011;8701;50.150;8.756;2023-02-12T02:41:42;28.33;;;17.47;;
17171;SDS011;8701;50.150;8.756;2023-02-12T02:45:50;31.60;;;17.67;;
17171;SDS011;8701;50.150;8.756;2023-02-12T02:49:58;28.43;;;18.07;;
17171;SDS011;8701;50.150;8.756;2023-02-12T02:54:06;30.07;;;17.30;;
17171;SDS011;8701;50.150;8.756;2023-02-12T02:58:13;30.57;;;17.77;;
17171;SDS011;8701;50.150;8.756;2023-02-12T03:02:21;31.20;;;17.63;;
17171;SDS011;8701;50.150;8.756;2023-02-12T03:06:28;33.23;;;17.90;;
17171;SDS011;8701;50.150;8.756;2023-02-12T03:10:34;28.27;;;16.90;;
17171;SDS011;8701;50.150;8.756;2023-02-12T03:14:41;31.03;;;17.53;;
17171;SDS011;8701;50.150;8.756;2023-02-12T03:18:52;28.80;;;15.67;;
17171;SDS011;8701;50.150;8.756;2023-02-12T03:23:02;30.70;;;17.00;;
17171;SDS011;8701;50.150;8.756;2023-02-12T03:27:08;29.80;;;17.20;;
17171;SDS011;8701;50.150;8.756;2023-02-12T03:31:16;27.77;;;16.33;;
17171;SDS011;8701;50.150;8.756;2023-02-12T03:35:30;26.20;;;16.23;;
17171;SDS011;8701;50.150;8.756;2023-02-12T03:39:37;30.40;;;15.97;;
17171;SDS011;8701;50.150;8.756;2023-02-12T03:43:58;27.83;;;17.07;;
17171;SDS011;8701;50.150;8.756;2023-02-12T03:48:09;27.27;;;16.73;;
17171;SDS011;8701;50.150;8.756;2023-02-12T03:52:14;27.03;;;16.47;;
17171;SDS011;8701;50.150;8.756;2023-02-12T03:56:18;30.90;;;17.57;;
17171;SDS011;8701;50.150;8.756;2023-02-12T04:00:24;33.07;;;17.57;;
17171;SDS011;8701;50.150;8.756;2023-02-12T04:04:27;30.60;;;17.60;;
17171;SDS011;8701;50.150;8.756;2023-02-12T04:08:30;28.37;;;16.30;;
17171;SDS011;8701;50.150;8.756;2023-02-12T04:12:37;24.90;;;16.00;;
17171;SDS011;8701;50.150;8.756;2023-02-12T04:16:43;26.73;;;16.63;;
17171;SDS011;8701;50.150;8.756;2023-02-12T04:20:52;28.53;;;15.60;;
17171;SDS011;8701;50.150;8.756;2023-02-12T04:25:00;31.87;;;18.00;;
17171;SDS011;8701;50.150;8.756;2023-02-12T04:29:15;25.50;;;15.93;;
17171;SDS011;8701;50.150;8.756;2023-02-12T04:33:21;26.33;;;17.03;;
17171;SDS011;8701;50.150;8.756;2023-02-12T04:37:27;27.87;;;17.77;;
17171;SDS011;8701;50.150;8.756;2023-02-12T04:41:37;27.50;;;17.50;;
17171;SDS011;8701;50.150;8.756;2023-02-12T04:45:41;30.63;;;18.10;;
17171;SDS011;8701;50.150;8.756;2023-02-12T04:49:43;26.13;;;16.50;;
17171;SDS011;8701;50.150;8.756;2023-02-12T04:53:46;29.80;;;17.50;;
17171;SDS011;8701;50.150;8.756;2023-02-12T04:57:48;27.70;;;16.17;;
17171;SDS011;8701;50.150;8.756;2023-02-12T05:02:01;30.67;;;17.37;;
17171;SDS011;8701;50.150;8.756;2023-02-12T05:06:04;25.73;;;15.90;;
17171;SDS011;8701;50.150;8.756;2023-02-12T05:10:08;29.30;;;16.27;;
17171;SDS011;8701;50.150;8.756;2023-02-12T05:14:11;26.43;;;16.03;;
17171;SDS011;8701;50.150;8.756;2023-02-12T05:18:15;26.03;;;15.90;;
17171;SDS011;8701;50.150;8.756;2023-02-12T05:22:18;30.97;;;17.47;;
17171;SDS011;8701;50.150;8.756;2023-02-12T05:26:20;30.33;;;17.73;;
17171;SDS011;8701;50.150;8.756;2023-02-12T05:30:23;26.37;;;15.40;;
17171;SDS011;8701;50.150;8.756;2023-02-12T05:34:28;26.90;;;17.37;;
17171;SDS011;8701;50.150;8.756;2023-02-12T05:38:30;31.00;;;18.37;;
17171;SDS011;8701;50.150;8.756;2023-02-12T05:42:32;27.60;;;17.33;;
17171;SDS011;8701;50.150;8.756;2023-02-12T05:46:35;26.60;;;16.17;;
17171;SDS011;8701;50.150;8.756;2023-02-12T05:50:39;31.70;;;18.33;;
17171;SDS011;8701;50.150;8.756;2023-02-12T05:54:42;29.47;;;17.00;;
17171;SDS011;8701;50.150;8.756;2023-02-12T05:58:44;27.23;;;15.90;;
17171;SDS011;8701;50.150;8.756;2023-02-12T06:02:48;31.30;;;17.47;;
17171;SDS011;8701;50.150;8.756;2023-02-12T06:06:52;26.17;;;15.43;;
17171;SDS011;8701;50.150;8.756;2023-02-12T06:10:57;28.07;;;16.70;;
17171;SDS011;8701;50.150;8.756;2023-02-12T06:15:02;30.47;;;17.30;;
17171;SDS011;8701;50.150;8.756;2023-02-12T06:19:05;30.80;;;16.17;;
17171;SDS011;8701;50.150;8.756;2023-02-12T06:23:08;32.17;;;16.80;;
17171;SDS011;8701;50.150;8.756;2023-02-12T06:27:11;28.57;;;17.73;;
17171;SDS011;8701;50.150;8.756;2023-02-12T06:31:17;25.50;;;15.73;;
17171;SDS011;8701;50.150;8.756;2023-02-12T06:35:21;23.70;;;14.50;;
17171;SDS011;8701;50.150;8.756;2023-02-12T06:39:24;23.10;;;15.37;;
17171;SDS011;8701;50.150;8.756;2023-02-12T06:43:27;28.10;;;15.77;;
17171;SDS011;8701;50.150;8.756;2023-02-12T06:47:30;25.27;;;15.30;;
17171;SDS011;8701;50.150;8.756;2023-02-12T06:51:32;26.40;;;15.67;;
17171;SDS011;8701;50.150;8.756;2023-02-12T06:55:39;26.93;;;17.27;;
17171;SDS011;8701;50.150;8.756;2023-02-12T06:59:41;32.73;;;17.30;;
17171;SDS011;8701;50.150;8.756;2023-02-12T07:03:46;27.00;;;16.30;;
17171;SDS011;8701;50.150;8.756;2023-02-12T07:07:50;29.20;;;17.90;;
17171;SDS011;8701;50.150;8.756;2023-02-12T07:11:53;30.97;;;18.10;;
17171;SDS011;8701;50.150;8.756;2023-02-12T07:15:56;29.13;;;17.63;;
17171;SDS011;8701;50.150;8.756;2023-02-12T07:19:58;33.90;;;17.87;;
17171;SDS011;8701;50.150;8.756;2023-02-12T07:24:01;27.90;;;17.13;;
17171;SDS011;8701;50.150;8.756;2023-02-12T07:28:04;29.90;;;18.90;;
17171;SDS011;8701;50.150;8.756;2023-02-12T07:32:07;28.77;;;18.00;;
17171;SDS011;8701;50.150;8.756;2023-02-12T07:36:10;32.77;;;19.20;;
17171;SDS011;8701;50.150;8.756;2023-02-12T07:40:15;30.60;;;17.40;;
17171;SDS011;8701;50.150;8.756;2023-02-12T07:44:20;30.50;;;18.50;;
17171;SDS011;8701;50.150;8.756;2023-02-12T07:48:22;28.70;;;19.10;;
17171;SDS011;8701;50.150;8.756;2023-02-12T07:52:31;34.40;;;20.00;;
17171;SDS011;8701;50.150;8.756;2023-02-12T07:56:34;34.00;;;20.10;;
17171;SDS011;8701;50.150;8.756;2023-02-12T08:00:40;34.30;;;19.90;;
17171;SDS011;8701;50.150;8.756;2023-02-12T08:04:42;30.00;;;19.40;;
17171;SDS011;8701;50.150;8.756;2023-02-12T08:08:49;35.60;;;21.00;;
17171;SDS011;8701;50.150;8.756;2023-02-12T08:12:57;34.70;;;20.90;;
17171;SDS011;8701;50.150;8.756;2023-02-12T08:17:01;40.70;;;22.77;;
17171;SDS011;8701;50.150;8.756;2023-02-12T08:21:04;35.93;;;20.93;;
17171;SDS011;8701;50.150;8.756;2023-02-12T08:25:11;34.77;;;22.83;;
17171;SDS011;8701;50.150;8.756;2023-02-12T08:29:14;39.73;;;22.37;;
17171;SDS011;8701;50.150;8.756;2023-02-12T08:33:22;37.33;;;23.67;;
17171;SDS011;8701;50.150;8.756;2023-02-12T08:37:24;41.07;;;24.23;;
17171;SDS011;8701;50.150;8.756;2023-02-12T08:41:28;40.20;;;22.73;;
17171;SDS011;8701;50.150;8.756;2023-02-12T08:45:33;45.90;;;25.20;;
17171;SDS011;8701;50.150;8.756;2023-02-12T08:57:51;45.70;;;24.50;;
17171;SDS011;8701;50.150;8.756;2023-02-12T09:01:59;45.10;;;25.40;;
17171;SDS011;8701;50.150;8.756;2023-02-12T09:06:06;45.90;;;24.10;;
17171;SDS011;8701;50.150;8.756;2023-02-12T09:10:09;47.37;;;25.83;;
17171;SDS011;8701;50.150;8.756;2023-02-12T09:14:14;46.90;;;25.80;;
17171;SDS011;8701;50.150;8.756;2023-02-12T09:18:23;48.33;;;26.17;;
17171;SDS011;8701;50.150;8.756;2023-02-12T09:22:28;48.50;;;26.57;;
17171;SDS011;8701;50.150;8.756;2023-02-12T09:26:30;48.67;;;27.03;;
17171;SDS011;8701;50.150;8.756;2023-02-12T09:30:33;51.53;;;26.13;;
17171;SDS011;8701;50.150;8.756;2023-02-12T09:34:36;42.63;;;25.33;;
17171;SDS011;8701;50.150;8.756;2023-02-12T09:38:40;47.70;;;26.70;;
17171;SDS011;8701;50.150;8.756;2023-02-12T09:42:48;44.37;;;25.67;;
17171;SDS011;8701;50.150;8.756;2023-02-12T09:47:02;42.63;;;25.57;;
17171;SDS011;8701;50.150;8.756;2023-02-12T09:51:07;41.73;;;24.60;;
17171;SDS011;8701;50.150;8.756;2023-02-12T09:55:12;41.97;;;24.03;;
17171;SDS011;8701;50.150;8.756;2023-02-12T09:59:19;44.40;;;23.50;;
17171;SDS011;8701;50.150;8.756;2023-02-12T10:03:29;40.83;;;24.47;;
17171;SDS011;8701;50.150;8.756;2023-02-12T10:07:39;50.27;;;25.50;;
17171;SDS011;8701;50.150;8.756;2023-02-12T10:12:02;41.70;;;24.47;;
17171;SDS011;8701;50.150;8.756;2023-02-12T10:16:11;48.90;;;26.83;;
17171;SDS011;8701;50.150;8.756;2023-02-12T10:20:30;42.67;;;25.80;;
17171;SDS011;8701;50.150;8.756;2023-02-12T10:24:46;43.50;;;25.53;;
17171;SDS011;8701;50.150;8.756;2023-02-12T10:29:00;45.43;;;26.00;;
17171;SDS011;8701;50.150;8.756;2023-02-12T10:33:16;45.10;;;24.63;;
17171;SDS011;8701;50.150;8.756;2023-02-12T10:37:24;44.53;;;23.40;;
17171;SDS011;8701;50.150;8.756;2023-02-12T10:41:34;42.43;;;24.30;;
17171;SDS011;8701;50.150;8.756;2023-02-12T10:45:43;43.43;;;23.97;;
17171;SDS011;8701;50.150;8.756;2023-02-12T10:49:45;42.00;;;22.70;;
17171;SDS011;8701;50.150;8.756;2023-02-12T10:54:03;37.50;;;21.97;;
17171;SDS011;8701;50.150;8.756;2023-02-12T10:59:36;34.70;;;21.33;;
17171;SDS011;8701;50.150;8.756;2023-02-12T11:08:32;43.90;;;23.53;;
17171;SDS011;8701;50.150;8.756;2023-02-12T11:18:35;43.93;;;22.93;;
17171;SDS011;8701;50.150;8.756;2023-02-12T11:22:40;48.67;;;25.93;;
17171;SDS011;8701;50.150;8.756;2023-02-12T11:47:05;50.23;;;25.80;;
17171;SDS011;8701;50.150;8.756;2023-02-12T11:51:17;44.07;;;23.10;;
17171;SDS011;8701;50.150;8.756;2023-02-12T11:55:24;47.23;;;25.03;;
17171;SDS011;8701;50.150;8.756;2023-02-12T11:59:34;43.80;;;24.47;;
17171;SDS011;8701;50.150;8.756;2023-02-12T12:03:40;39.83;;;22.20;;
17171;SDS011;8701;50.150;8.756;2023-02-12T12:07:48;34.27;;;21.70;;
17171;SDS011;8701;50.150;8.756;2023-02-12T12:11:56;36.50;;;20.77;;
17171;SDS011;8701;50.150;8.756;2023-02-12T12:16:06;31.50;;;17.63;;
17171;SDS011;8701;50.150;8.756;2023-02-12T12:20:30;33.40;;;18.87;;
17171;SDS011;8701;50.150;8.756;2023-02-12T12:24:38;38.67;;;22.10;;
17171;SDS011;8701;50.150;8.756;2023-02-12T12:28:45;34.37;;;20.17;;
17171;SDS011;8701;50.150;8.756;2023-02-12T12:37:39;40.23;;;22.20;;
17171;SDS011;8701;50.150;8.756;2023-02-12T12:46:35;40.90;;;22.40;;
17171;SDS011;8701;50.150;8.756;2023-02-12T12:50:48;34.87;;;20.70;;
17171;SDS011;8701;50.150;8.756;2023-02-12T12:55:26;37.03;;;22.07;;
17171;SDS011;8701;50.150;8.756;2023-02-12T12:59:59;28.63;;;16.67;;
17171;SDS011;8701;50.150;8.756;2023-02-12T13:04:15;28.07;;;17.40;;
17171;SDS011;8701;50.150;8.756;2023-02-12T13:08:48;31.23;;;18.67;;
17171;SDS011;8701;50.150;8.756;2023-02-12T13:13:17;30.03;;;19.87;;
17171;SDS011;8701;50.150;8.756;2023-02-12T13:17:26;28.97;;;19.07;;
17171;SDS011;8701;50.150;8.756;2023-02-12T13:21:37;27.37;;;17.30;;
17171;SDS011;8701;50.150;8.756;2023-02-12T13:25:48;23.67;;;17.00;;
17171;SDS011;8701;50.150;8.756;2023-02-12T13:29:59;20.87;;;13.93;;
17171;SDS011;8701;50.150;8.756;2023-02-12T13:34:06;21.77;;;15.70;;
17171;SDS011;8701;50.150;8.756;2023-02-12T13:38:16;22.27;;;14.43;;
17171;SDS011;8701;50.150;8.756;2023-02-12T13:42:35;21.50;;;15.00;;
17171;SDS011;8701;50.150;8.756;2023-02-12T13:46:48;17.50;;;12.53;;
17171;SDS011;8701;50.150;8.756;2023-02-12T13:50:58;25.50;;;16.17;;
17171;SDS011;8701;50.150;8.756;2023-02-12T13:55:14;18.67;;;12.13;;
17171;SDS011;8701;50.150;8.756;2023-02-12T13:59:37;17.13;;;11.57;;
17171;SDS011;8701;50.150;8.756;2023-02-12T14:03:48;20.00;;;12.00;;
17171;SDS011;8701;50.150;8.756;2023-02-12T14:07:53;18.90;;;12.20;;
17171;SDS011;8701;50.150;8.756;2023-02-12T14:11:56;17.60;;;12.00;;
17171;SDS011;8701;50.150;8.756;2023-02-12T14:16:17;19.73;;;11.73;;
17171;SDS011;8701;50.150;8.756;2023-02-12T14:20:26;25.13;;;12.70;;
17171;SDS011;8701;50.150;8.756;2023-02-12T14:28:58;17.00;;;10.57;;
17171;SDS011;8701;50.150;8.756;2023-02-12T14:37:37;32.23;;;11.70;;
17171;SDS011;8701;50.150;8.756;2023-02-12T14:41:40;18.40;;;10.37;;
17171;SDS011;8701;50.150;8.756;2023-02-12T14:45:45;19.10;;;11.43;;
17171;SDS011;8701;50.150;8.756;2023-02-12T14:49:49;17.37;;;10.57;;
17171;SDS011;8701;50.150;8.756;2023-02-12T14:53:56;18.43;;;9.93;;
17171;SDS011;8701;50.150;8.756;2023-02-12T14:58:02;13.17;;;9.77;;
17171;SDS011;8701;50.150;8.756;2023-02-12T15:02:12;16.80;;;10.63;;
17171;SDS011;8701;50.150;8.756;2023-02-12T15:06:25;14.07;;;9.73;;
17171;SDS011;8701;50.150;8.756;2023-02-12T15:10:38;21.73;;;9.77;;
17171;SDS011;8701;50.150;8.756;2023-02-12T15:14:44;15.37;;;9.30;;
17171;SDS011;8701;50.150;8.756;2023-02-12T15:18:53;16.43;;;10.43;;
17171;SDS011;8701;50.150;8.756;2023-02-12T15:22:59;16.87;;;9.80;;
17171;SDS011;8701;50.150;8.756;2023-02-12T15:27:04;13.77;;;8.27;;
17171;SDS011;8701;50.150;8.756;2023-02-12T15:31:06;17.00;;;9.73;;
17171;SDS011;8701;50.150;8.756;2023-02-12T15:35:23;13.83;;;8.77;;
17171;SDS011;8701;50.150;8.756;2023-02-12T15:39:30;14.83;;;9.27;;
17171;SDS011;8701;50.150;8.756;2023-02-12T15:43:41;14.27;;;8.83;;
17171;SDS011;8701;50.150;8.756;2023-02-12T15:47:45;15.50;;;9.53;;
17171;SDS011;8701;50.150;8.756;2023-02-12T15:51:58;13.03;;;7.87;;
17171;SDS011;8701;50.150;8.756;2023-02-12T15:56:03;16.17;;;10.23;;
17171;SDS011;8701;50.150;8.756;2023-02-12T16:00:08;14.50;;;8.50;;
17171;SDS011;8701;50.150;8.756;2023-02-12T16:04:24;16.87;;;10.47;;
17171;SDS011;8701;50.150;8.756;2023-02-12T16:08:31;21.40;;;12.17;;
17171;SDS011;8701;50.150;8.756;2023-02-12T16:12:36;18.97;;;11.40;;
17171;SDS011;8701;50.150;8.756;2023-02-12T16:16:44;22.43;;;11.70;;
17171;SDS011;8701;50.150;8.756;2023-02-12T16:21:03;20.37;;;10.77;;
17171;SDS011;8701;50.150;8.756;2023-02-12T16:25:11;22.73;;;11.40;;
17171;SDS011;8701;50.150;8.756;2023-02-12T16:29:17;17.20;;;11.00;;
17171;SDS011;8701;50.150;8.756;2023-02-12T16:33:34;19.73;;;11.40;;
17171;SDS011;8701;50.150;8.756;2023-02-12T16:37:47;18.87;;;11.40;;
17171;SDS011;8701;50.150;8.756;2023-02-12T16:41:52;19.63;;;11.63;;
17171;SDS011;8701;50.150;8.756;2023-02-12T16:46:00;23.03;;;10.80;;
17171;SDS011;8701;50.150;8.756;2023-02-12T16:50:14;18.73;;;10.90;;
17171;SDS011;8701;50.150;8.756;2023-02-12T16:54:24;18.33;;;9.93;;
17171;SDS011;8701;50.150;8.756;2023-02-12T16:58:29;16.07;;;9.63;;
17171;SDS011;8701;50.150;8.756;2023-02-12T17:02:32;17.97;;;10.77;;
17171;SDS011;8701;50.150;8.756;2023-02-12T17:06:37;18.73;;;10.03;;
17171;SDS011;8701;50.150;8.756;2023-02-12T17:10:42;21.60;;;10.33;;
17171;SDS011;8701;50.150;8.756;2023-02-12T17:14:45;15.10;;;9.33;;
17171;SDS011;8701;50.150;8.756;2023-02-12T17:18:50;17.83;;;10.37;;
17171;SDS011;8701;50.150;8.756;2023-02-12T17:22:54;17.77;;;10.30;;
17171;SDS011;8701;50.150;8.756;2023-02-12T17:27:00;19.20;;;11.40;;
17171;SDS011;8701;50.150;8.756;2023-02-12T17:31:03;18.23;;;10.40;;
17171;SDS011;8701;50.150;8.756;2023-02-12T17:35:08;16.63;;;9.67;;
17171;SDS011;8701;50.150;8.756;2023-02-12T17:39:13;18.50;;;10.57;;
17171;SDS011;8701;50.150;8.756;2023-02-12T17:43:16;21.53;;;11.23;;
17171;SDS011;8701;50.150;8.756;2023-02-12T17:47:19;14.67;;;8.70;;
17171;SDS011;8701;50.150;8.756;2023-02-12T17:51:21;13.13;;;8.27;;
17171;SDS011;8701;50.150;8.756;2023-02-12T17:55:27;12.90;;;7.30;;
17171;SDS011;8701;50.150;8.756;2023-02-12T17:59:29;10.53;;;7.43;;
17171;SDS011;8701;50.150;8.756;2023-02-12T18:03:32;9.60;;;5.97;;
17171;SDS011;8701;50.150;8.756;2023-02-12T18:07:37;8.53;;;6.00;;
17171;SDS011;8701;50.150;8.756;2023-02-12T18:11:41;9.27;;;5.70;;
17171;SDS011;8701;50.150;8.756;2023-02-12T18:15:43;8.03;;;5.20;;
17171;SDS011;8701;50.150;8.756;2023-02-12T18:19:46;5.73;;;5.00;;
17171;SDS011;8701;50.150;8.756;2023-02-12T18:23:49;7.57;;;4.57;;
17171;SDS011;8701;50.150;8.756;2023-02-12T18:27:54;5.77;;;5.17;;
17171;SDS011;8701;50.150;8.756;2023-02-12T18:31:57;6.80;;;4.67;;
17171;SDS011;8701;50.150;8.756;2023-02-12T18:35:59;6.20;;;4.40;;
17171;SDS011;8701;50.150;8.756;2023-02-12T18:40:05;6.90;;;5.03;;
17171;SDS011;8701;50.150;8.756;2023-02-12T18:44:09;7.10;;;5.50;;
17171;SDS011;8701;50.150;8.756;2023-02-12T18:48:12;8.20;;;5.17;;
17171;SDS011;8701;50.150;8.756;2023-02-12T18:52:14;7.73;;;5.17;;
17171;SDS011;8701;50.150;8.756;2023-02-12T18:56:16;6.67;;;5.20;;
17171;SDS011;8701;50.150;8.756;2023-02-12T19:00:21;5.90;;;5.17;;
17171;SDS011;8701;50.150;8.756;2023-02-12T19:04:30;6.60;;;4.60;;
17171;SDS011;8701;50.150;8.756;2023-02-12T19:08:33;7.50;;;5.80;;
17171;SDS011;8701;50.150;8.756;2023-02-12T19:12:37;6.47;;;4.87;;
17171;SDS011;8701;50.150;8.756;2023-02-12T19:16:52;6.40;;;5.00;;
17171;SDS011;8701;50.150;8.756;2023-02-12T19:20:54;8.83;;;6.20;;
17171;SDS011;8701;50.150;8.756;2023-02-12T19:24:57;8.43;;;6.30;;
17171;SDS011;8701;50.150;8.756;2023-02-12T19:29:00;8.30;;;6.00;;
17171;SDS011;8701;50.150;8.756;2023-02-12T19:33:05;9.27;;;6.10;;
17171;SDS011;8701;50.150;8.756;2023-02-12T19:37:08;9.67;;;6.80;;
17171;SDS011;8701;50.150;8.756;2023-02-12T19:41:15;11.47;;;6.67;;
17171;SDS011;8701;50.150;8.756;2023-02-12T19:45:19;8.00;;;6.00;;
17171;SDS011;8701;50.150;8.756;2023-02-12T19:49:23;11.50;;;6.37;;
17171;SDS011;8701;50.150;8.756;2023-02-12T19:53:27;9.20;;;6.70;;
17171;SDS011;8701;50.150;8.756;2023-02-12T19:57:29;10.37;;;6.90;;
17171;SDS011;8701;50.150;8.756;2023-02-12T20:01:32;9.63;;;6.57;;
17171;SDS011;8701;50.150;8.756;2023-02-12T20:05:37;8.13;;;6.33;;
17171;SDS011;8701;50.150;8.756;2023-02-12T20:09:48;12.47;;;8.13;;
17171;SDS011;8701;50.150;8.756;2023-02-12T20:13:53;10.63;;;7.07;;
17171;SDS011;8701;50.150;8.756;2023-02-12T20:17:57;7.70;;;6.50;;
17171;SDS011;8701;50.150;8.756;2023-02-12T20:22:02;8.30;;;5.93;;
17171;SDS011;8701;50.150;8.756;2023-02-12T20:26:05;10.77;;;7.37;;
17171;SDS011;8701;50.150;8.756;2023-02-12T20:30:10;10.33;;;6.40;;
17171;SDS011;8701;50.150;8.756;2023-02-12T20:38:22;13.17;;;6.63;;
17171;SDS011;8701;50.150;8.756;2023-02-12T20:42:24;12.87;;;8.07;;
17171;SDS011;8701;50.150;8.756;2023-02-12T20:46:27;10.03;;;7.37;;
17171;SDS011;8701;50.150;8.756;2023-02-12T20:50:30;11.83;;;7.83;;
17171;SDS011;8701;50.150;8.756;2023-02-12T20:54:34;12.73;;;8.27;;
17171;SDS011;8701;50.150;8.756;2023-02-12T20:58:41;11.00;;;7.43;;
17171;SDS011;8701;50.150;8.756;2023-02-12T21:02:48;11.43;;;7.33;;
17171;SDS011;8701;50.150;8.756;2023-02-12T21:06:53;10.67;;;7.37;;
17171;SDS011;8701;50.150;8.756;2023-02-12T21:11:01;12.70;;;7.43;;
17171;SDS011;8701;50.150;8.756;2023-02-12T21:15:07;11.70;;;7.20;;
17171;SDS011;8701;50.150;8.756;2023-02-12T21:19:10;12.67;;;7.93;;
17171;SDS011;8701;50.150;8.756;2023-02-12T21:23:13;12.70;;;7.70;;
17171;SDS011;8701;50.150;8.756;2023-02-12T21:27:18;10.67;;;7.33;;
17171;SDS011;8701;50.150;8.756;2023-02-12T21:31:21;10.50;;;7.87;;
17171;SDS011;8701;50.150;8.756;2023-02-12T21:35:24;11.23;;;8.10;;
17171;SDS011;8701;50.150;8.756;2023-02-12T21:39:27;10.60;;;7.20;;
17171;SDS011;8701;50.150;8.756;2023-02-12T21:43:34;12.73;;;7.77;;
17171;SDS011;8701;50.150;8.756;2023-02-12T21:47:38;12.30;;;7.33;;
17171;SDS011;8701;50.150;8.756;2023-02-12T21:51:41;11.50;;;7.40;;
17171;SDS011;8701;50.150;8.756;2023-02-12T21:55:44;8.37;;;6.60;;
17171;SDS011;8701;50.150;8.756;2023-02-12T21:59:48;10.23;;;7.50;;
17171;SDS011;8701;50.150;8.756;2023-02-12T22:03:51;9.10;;;7.07;;
17171;SDS011;8701;50.150;8.756;2023-02-12T22:07:53;12.87;;;7.47;;
17171;SDS011;8701;50.150;8.756;2023-02-12T22:11:55;11.27;;;7.90;;
17171;SDS011;8701;50.150;8.756;2023-02-12T22:16:07;12.87;;;8.00;;
17171;SDS011;8701;50.150;8.756;2023-02-12T22:20:10;10.80;;;7.63;;
17171;SDS011;8701;50.150;8.756;2023-02-12T22:24:14;10.43;;;7.77;;
17171;SDS011;8701;50.150;8.756;2023-02-12T22:28:16;14.10;;;8.50;;
17171;SDS011;8701;50.150;8.756;2023-02-12T22:32:20;12.50;;;7.60;;
17171;SDS011;8701;50.150;8.756;2023-02-12T22:36:24;10.63;;;7.63;;
17171;SDS011;8701;50.150;8.756;2023-02-12T22:40:27;10.30;;;7.20;;
17171;SDS011;8701;50.150;8.756;2023-02-12T22:44:29;11.67;;;7.70;;
17171;SDS011;8701;50.150;8.756;2023-02-12T22:48:34;11.87;;;7.73;;
17171;SDS011;8701;50.150;8.756;2023-02-12T22:52:37;11.50;;;7.27;;
17171;SDS011;8701;50.150;8.756;2023-02-12T22:56:39;7.83;;;6.00;;
17171;SDS011;8701;50.150;8.756;2023-02-12T23:00:41;8.57;;;5.97;;
17171;SDS011;8701;50.150;8.756;2023-02-12T23:04:45;9.57;;;6.20;;
17171;SDS011;8701;50.150;8.756;2023-02-12T23:08:48;8.37;;;6.30;;
17171;SDS011;8701;50.150;8.756;2023-02-12T23:12:52;6.97;;;5.40;;
17171;SDS011;8701;50.150;8.756;2023-02-12T23:16:57;7.40;;;5.60;;
17171;SDS011;8701;50.150;8.756;2023-02-12T23:21:01;8.53;;;5.60;;
17171;SDS011;8701;50.150;8.756;2023-02-12T23:25:04;5.43;;;4.83;;
17171;SDS011;8701;50.150;8.756;2023-02-12T23:29:09;6.83;;;5.17;;
17171;SDS011;8701;50.150;8.756;2023-02-12T23:33:16;7.07;;;5.10;;
17171;SDS011;8701;50.150;8.756;2023-02-12T23:37:21;5.67;;;5.13;;
17171;SDS011;8701;50.150;8.756;2023-02-12T23:41:24;7.13;;;5.50;;
17171;SDS011;8701;50.150;8.756;2023-02-12T23:45:26;6.73;;;5.70;;
17171;SDS011;8701;50.150;8.756;2023-02-12T23:49:29;6.20;;;5.00;;
17171;SDS011;8701;50.150;8.756;2023-02-12T23:53:35;6.50;;;4.67;;
17171;SDS011;8701;50.150;8.756;2023-02-12T23:57:38;6.40;;;5.17;;
